Atlantic City, NJ

2:13 AM EDT on June 23, 2018 (GMT -0400)
The Wheel at Steel Pier | | Change Station

Elev 75 ft 39.36 °N, 74.42 °W | Updated 12 minutes ago

Overcast
Overcast
66 °F
Feels Like 66 °F
N
7.8
Wind Variable Wind from South
Gusts 0.0 mph

Today
High -- | Low -- °F
--% Chance of Precip.
Yesterday
High -- | Low -- °F
Precip. -- in
Pressure 29.89 in
Visibility 9.0 miles
Clouds Overcast 500 ft
Dew Point 64 °F
Humidity 93%
Rainfall 0.02 in
Snow Depth Not available.
5:31 AM 8:28 PM
Waxing Gibbous, 78% visible
METAR KACY 230554Z 07009KT 9SM OVC005 19/19 A2989 RMK AO2 RAE0459 SLP121 P0000 60004 T01940194 10200 20194 58013
Pressure 29.89 in
Visibility 9.0 miles
Clouds Overcast 500 ft
Dew Point 64 °F
Humidity 93%
Rainfall 0.02 in
Snow Depth Not available.
5:31 AM 8:28 PM
Waxing Gibbous, 78% visible
METAR KACY 230554Z 07009KT 9SM OVC005 19/19 A2989 RMK AO2 RAE0459 SLP121 P0000 60004 T01940194 10200 20194 58013

Get Severe Weather Alerts

Thanks for signing up!

Be on the lookout for a verification email in your inbox.

You'll start receiving the daily forecast at 6 AM.

×

10-Day Weather Forecast

Almanac

Astronomy

Jun. 23, 2018 Rise Set
Actual Time
Civil Twilight
Nautical Twilight
Astronomical Twilight
Moon
Length of Visible Light
Length of Day
Tomorrow will be .
, % of the Moon is Illuminated

Today's Extremes

State Highs State Lows

Community

WunderPhotos

Category 6

Welcome to Category 6. This is the collective home for Weather Underground's featured writeups by Dr. Jeff Masters (right), Bob Henson (left), Chris Burt, and other regular contributors.

Nearby

Air Quality

  Air Quality AQ Index Pollutant
Not available.

Snow Depth

Station Depth Elevation

Earthquake Activity

City Distance Mag. Time & Date
Minimum magnitude displayed is 2.5.

Coastal Water Temperatures

Place Temperature

Stations

Nearby Weather Stations

Station Location Temp. Windchill Dew Point Humidity Wind Precip. Elev Updated Type
                   

Watches & Warnings

There are currently no watches in effect.